sensor_id;sensor_type;location;lat;lon;timestamp;pressure;altitude;pressure_sealevel;temperature;humidity
40285;BME280;25997;50.214;19.354;2023-10-13T00:01:36;97879.81;;;15.98;63.94
40285;BME280;25997;50.214;19.354;2023-10-13T00:04:39;97875.41;;;16.00;64.06
40285;BME280;25997;50.214;19.354;2023-10-13T00:07:43;97874.53;;;15.98;63.92
40285;BME280;25997;50.214;19.354;2023-10-13T00:10:47;97871.88;;;15.98;63.92
40285;BME280;25997;50.214;19.354;2023-10-13T00:13:49;97862.16;;;15.95;64.03
40285;BME280;25997;50.214;19.354;2023-10-13T00:16:52;97861.28;;;15.93;63.90
40285;BME280;25997;50.214;19.354;2023-10-13T00:20:06;97856.84;;;15.94;63.99
40285;BME280;25997;50.214;19.354;2023-10-13T00:23:13;97860.38;;;15.94;63.68
40285;BME280;25997;50.214;19.354;2023-10-13T00:26:18;97859.47;;;15.94;63.62
40285;BME280;25997;50.214;19.354;2023-10-13T00:29:25;97854.19;;;15.91;63.44
40285;BME280;25997;50.214;19.354;2023-10-13T00:32:38;97855.06;;;15.91;63.45
40285;BME280;25997;50.214;19.354;2023-10-13T00:35:44;97850.66;;;15.89;63.66
40285;BME280;25997;50.214;19.354;2023-10-13T00:38:48;97849.75;;;15.79;63.37
40285;BME280;25997;50.214;19.354;2023-10-13T00:41:54;97842.66;;;15.66;63.78
40285;BME280;25997;50.214;19.354;2023-10-13T00:44:59;97837.34;;;15.60;63.88
40285;BME280;25997;50.214;19.354;2023-10-13T00:48:02;97839.03;;;15.53;63.56
40285;BME280;25997;50.214;19.354;2023-10-13T00:51:13;97833.72;;;15.43;64.18
40285;BME280;25997;50.214;19.354;2023-10-13T00:54:34;97832.78;;;15.27;64.05
40285;BME280;25997;50.214;19.354;2023-10-13T00:57:40;97830.09;;;15.18;64.33
40285;BME280;25997;50.214;19.354;2023-10-13T01:00:42;97826.53;;;15.12;64.63
40285;BME280;25997;50.214;19.354;2023-10-13T01:03:50;97814.19;;;15.09;64.70
40285;BME280;25997;50.214;19.354;2023-10-13T01:06:56;97817.72;;;15.07;64.50
40285;BME280;25997;50.214;19.354;2023-10-13T01:10:00;97820.34;;;15.03;64.57
40285;BME280;25997;50.214;19.354;2023-10-13T01:13:06;97830.03;;;15.03;64.75
40285;BME280;25997;50.214;19.354;2023-10-13T01:16:09;97830.03;;;15.04;64.66
40285;BME280;25997;50.214;19.354;2023-10-13T01:19:12;97833.56;;;15.05;64.65
40285;BME280;25997;50.214;19.354;2023-10-13T01:22:15;97829.16;;;15.05;64.71
40285;BME280;25997;50.214;19.354;2023-10-13T01:25:18;97824.75;;;15.04;64.53
40285;BME280;25997;50.214;19.354;2023-10-13T01:28:26;97830.03;;;15.03;64.72
40285;BME280;25997;50.214;19.354;2023-10-13T01:31:27;97830.00;;;15.00;64.38
40285;BME280;25997;50.214;19.354;2023-10-13T01:34:31;97830.00;;;15.00;64.37
40285;BME280;25997;50.214;19.354;2023-10-13T01:37:34;97823.81;;;14.93;64.92
40285;BME280;25997;50.214;19.354;2023-10-13T01:40:38;97825.56;;;14.90;64.82
40285;BME280;25997;50.214;19.354;2023-10-13T01:43:39;97819.38;;;14.89;64.75
40285;BME280;25997;50.214;19.354;2023-10-13T01:46:42;97812.34;;;14.91;64.63
40285;BME280;25997;50.214;19.354;2023-10-13T01:49:44;97810.63;;;14.95;64.49
40285;BME280;25997;50.214;19.354;2023-10-13T01:52:48;97807.06;;;14.94;64.80
40285;BME280;25997;50.214;19.354;2023-10-13T01:55:53;97817.66;;;14.96;64.98
40285;BME280;25997;50.214;19.354;2023-10-13T01:58:58;97817.69;;;14.99;64.84
40285;BME280;25997;50.214;19.354;2023-10-13T02:02:00;97815.91;;;15.01;65.04
40285;BME280;25997;50.214;19.354;2023-10-13T02:05:02;97809.75;;;15.00;64.86
40285;BME280;25997;50.214;19.354;2023-10-13T02:08:05;97805.34;;;15.01;65.08
40285;BME280;25997;50.214;19.354;2023-10-13T02:11:10;97805.34;;;15.01;65.08
40285;BME280;25997;50.214;19.354;2023-10-13T02:14:12;97807.13;;;15.02;65.03
40285;BME280;25997;50.214;19.354;2023-10-13T02:17:17;97804.44;;;15.00;65.04
40285;BME280;25997;50.214;19.354;2023-10-13T02:20:22;97800.91;;;14.98;65.15
40285;BME280;25997;50.214;19.354;2023-10-13T02:23:26;97816.78;;;14.95;65.13
40285;BME280;25997;50.214;19.354;2023-10-13T02:26:31;97823.81;;;14.92;65.03
40285;BME280;25997;50.214;19.354;2023-10-13T02:29:39;97810.53;;;14.84;64.92
40285;BME280;25997;50.214;19.354;2023-10-13T02:32:41;97810.47;;;14.77;64.82
40285;BME280;25997;50.214;19.354;2023-10-13T02:35:44;97821.03;;;14.72;64.81
40285;BME280;25997;50.214;19.354;2023-10-13T02:38:54;97830.69;;;14.64;65.17
40285;BME280;25997;50.214;19.354;2023-10-13T02:42:00;97834.19;;;14.65;64.80
40285;BME280;25997;50.214;19.354;2023-10-13T02:45:01;97828.88;;;14.63;64.93
40285;BME280;25997;50.214;19.354;2023-10-13T02:48:05;97832.44;;;14.64;64.80
40285;BME280;25997;50.214;19.354;2023-10-13T02:51:14;97830.66;;;14.63;64.63
40285;BME280;25997;50.214;19.354;2023-10-13T02:54:20;97828.00;;;14.60;65.06
40285;BME280;25997;50.214;19.354;2023-10-13T02:57:22;97828.00;;;14.60;64.96
40285;BME280;25997;50.214;19.354;2023-10-13T03:00:25;97828.84;;;14.59;65.21
40285;BME280;25997;50.214;19.354;2023-10-13T03:03:32;97829.72;;;14.56;65.03
40285;BME280;25997;50.214;19.354;2023-10-13T03:06:36;97826.22;;;14.57;65.05
40285;BME280;25997;50.214;19.354;2023-10-13T03:09:41;97821.81;;;14.58;64.74
40285;BME280;25997;50.214;19.354;2023-10-13T03:12:51;97821.84;;;14.64;65.10
40285;BME280;25997;50.214;19.354;2023-10-13T03:15:56;97831.50;;;14.60;64.99
40285;BME280;25997;50.214;19.354;2023-10-13T03:18:57;97827.09;;;14.61;65.05
40285;BME280;25997;50.214;19.354;2023-10-13T03:22:00;97828.84;;;14.59;65.21
40285;BME280;25997;50.214;19.354;2023-10-13T03:25:10;97829.75;;;14.61;65.05
40285;BME280;25997;50.214;19.354;2023-10-13T03:28:20;97843.84;;;14.63;65.32
40285;BME280;25997;50.214;19.354;2023-10-13T03:31:26;97841.22;;;14.63;65.15
40285;BME280;25997;50.214;19.354;2023-10-13T03:34:30;97833.28;;;14.63;65.12
40285;BME280;25997;50.214;19.354;2023-10-13T03:37:32;97828.03;;;14.66;65.17
40285;BME280;25997;50.214;19.354;2023-10-13T03:40:39;97834.19;;;14.63;65.17
40285;BME280;25997;50.214;19.354;2023-10-13T03:43:43;97834.19;;;14.63;65.37
40285;BME280;25997;50.214;19.354;2023-10-13T03:46:52;97819.19;;;14.62;65.10
40285;BME280;25997;50.214;19.354;2023-10-13T03:49:55;97828.88;;;14.63;65.18
40285;BME280;25997;50.214;19.354;2023-10-13T03:53:16;97820.06;;;14.63;65.21
40285;BME280;25997;50.214;19.354;2023-10-13T03:56:19;97825.38;;;14.67;65.06
40285;BME280;25997;50.214;19.354;2023-10-13T03:59:30;97819.22;;;14.67;64.97
40285;BME280;25997;50.214;19.354;2023-10-13T04:02:36;97820.09;;;14.67;65.12
40285;BME280;25997;50.214;19.354;2023-10-13T04:05:39;97814.81;;;14.67;65.19
40285;BME280;25997;50.214;19.354;2023-10-13T04:08:45;97813.94;;;14.67;65.21
40285;BME280;25997;50.214;19.354;2023-10-13T04:11:49;97823.63;;;14.68;65.27
40285;BME280;25997;50.214;19.354;2023-10-13T04:15:20;97818.34;;;14.68;65.51
40285;BME280;25997;50.214;19.354;2023-10-13T04:18:28;97820.13;;;14.72;65.44
40285;BME280;25997;50.214;19.354;2023-10-13T04:21:48;97815.72;;;14.72;65.44
40285;BME280;25997;50.214;19.354;2023-10-13T04:25:00;97809.56;;;14.73;65.43
40285;BME280;25997;50.214;19.354;2023-10-13T04:28:01;97813.97;;;14.74;65.57
40285;BME280;25997;50.214;19.354;2023-10-13T04:31:36;97816.63;;;14.74;65.41
40285;BME280;25997;50.214;19.354;2023-10-13T04:35:01;97824.56;;;14.76;65.25
40285;BME280;25997;50.214;19.354;2023-10-13T04:38:10;97824.56;;;14.76;65.52
40285;BME280;25997;50.214;19.354;2023-10-13T04:41:20;97828.97;;;14.77;65.59
40285;BME280;25997;50.214;19.354;2023-10-13T04:44:24;97829.88;;;14.80;65.34
40285;BME280;25997;50.214;19.354;2023-10-13T04:47:41;97837.00;;;14.89;65.60
40285;BME280;25997;50.214;19.354;2023-10-13T04:51:01;97837.94;;;14.95;65.53
40285;BME280;25997;50.214;19.354;2023-10-13T04:54:20;97846.75;;;14.99;65.30
40285;BME280;25997;50.214;19.354;2023-10-13T04:57:34;97839.75;;;15.04;65.76
40285;BME280;25997;50.214;19.354;2023-10-13T05:00:48;97843.34;;;15.15;65.46
40285;BME280;25997;50.214;19.354;2023-10-13T05:04:14;97853.09;;;15.28;65.30
40285;BME280;25997;50.214;19.354;2023-10-13T05:07:39;97862.84;;;15.43;65.39
40285;BME280;25997;50.214;19.354;2023-10-13T05:11:03;97856.72;;;15.59;65.15
40285;BME280;25997;50.214;19.354;2023-10-13T05:14:23;97862.97;;;15.76;64.95
40285;BME280;25997;50.214;19.354;2023-10-13T05:17:39;97866.53;;;15.92;64.61
40285;BME280;25997;50.214;19.354;2023-10-13T05:21:01;97874.50;;;16.02;64.75
40285;BME280;25997;50.214;19.354;2023-10-13T05:24:29;97878.94;;;16.09;64.39
40285;BME280;25997;50.214;19.354;2023-10-13T05:27:49;97879.81;;;16.11;64.63
40285;BME280;25997;50.214;19.354;2023-10-13T05:31:09;97881.59;;;16.08;64.62
40285;BME280;25997;50.214;19.354;2023-10-13T05:34:29;97878.94;;;16.18;64.46
40285;BME280;25997;50.214;19.354;2023-10-13T05:37:50;97878.97;;;16.24;64.51
40285;BME280;25997;50.214;19.354;2023-10-13T05:41:10;97879.84;;;16.29;64.35
40285;BME280;25997;50.214;19.354;2023-10-13T05:44:30;97878.09;;;16.24;64.71
40285;BME280;25997;50.214;19.354;2023-10-13T05:47:38;97878.97;;;16.21;64.86
40285;BME280;25997;50.214;19.354;2023-10-13T05:50:51;97879.81;;;16.20;64.48
40285;BME280;25997;50.214;19.354;2023-10-13T05:54:21;97880.72;;;16.21;64.83
40285;BME280;25997;50.214;19.354;2023-10-13T05:57:41;97886.00;;;16.21;64.50
40285;BME280;25997;50.214;19.354;2023-10-13T06:01:00;97878.97;;;16.20;63.68
40285;BME280;25997;50.214;19.354;2023-10-13T06:04:20;97879.81;;;16.11;64.39
40285;BME280;25997;50.214;19.354;2023-10-13T06:07:40;97886.88;;;16.09;64.76
40285;BME280;25997;50.214;19.354;2023-10-13T06:11:05;97896.63;;;16.09;64.67
40285;BME280;25997;50.214;19.354;2023-10-13T06:14:24;97886.00;;;16.04;64.40
40285;BME280;25997;50.214;19.354;2023-10-13T06:17:44;97887.75;;;16.04;64.31
40285;BME280;25997;50.214;19.354;2023-10-13T06:21:04;97893.94;;;16.03;64.55
40285;BME280;25997;50.214;19.354;2023-10-13T06:24:24;97889.53;;;16.06;64.39
40285;BME280;25997;50.214;19.354;2023-10-13T06:27:46;97884.25;;;16.11;64.72
40285;BME280;25997;50.214;19.354;2023-10-13T06:31:05;97890.41;;;16.16;64.49
40285;BME280;25997;50.214;19.354;2023-10-13T06:34:08;97886.00;;;16.22;64.23
40285;BME280;25997;50.214;19.354;2023-10-13T06:37:10;97886.91;;;16.29;64.47
40285;BME280;25997;50.214;19.354;2023-10-13T06:40:24;97896.63;;;16.36;64.30
40285;BME280;25997;50.214;19.354;2023-10-13T06:43:36;97900.16;;;16.38;64.38
40285;BME280;25997;50.214;19.354;2023-10-13T06:46:40;97895.75;;;16.41;64.16
40285;BME280;25997;50.214;19.354;2023-10-13T06:49:44;97902.84;;;16.45;64.28
40285;BME280;25997;50.214;19.354;2023-10-13T06:52:46;97909.03;;;16.49;64.09
40285;BME280;25997;50.214;19.354;2023-10-13T06:55:49;97902.88;;;16.55;64.21
40285;BME280;25997;50.214;19.354;2023-10-13T06:59:01;97908.16;;;16.55;64.33
40285;BME280;25997;50.214;19.354;2023-10-13T07:02:05;97910.81;;;16.56;64.04
40285;BME280;25997;50.214;19.354;2023-10-13T07:05:10;97901.09;;;16.61;63.99
40285;BME280;25997;50.214;19.354;2023-10-13T07:08:15;97905.53;;;16.58;64.07
40285;BME280;25997;50.214;19.354;2023-10-13T07:11:24;97919.66;;;16.63;63.93
40285;BME280;25997;50.214;19.354;2023-10-13T07:14:36;97929.38;;;16.65;63.97
40285;BME280;25997;50.214;19.354;2023-10-13T07:17:39;97924.94;;;16.67;64.12
40285;BME280;25997;50.214;19.354;2023-10-13T07:20:45;97913.44;;;16.76;63.97
40285;BME280;25997;50.214;19.354;2023-10-13T07:23:48;97913.47;;;16.91;63.55
40285;BME280;25997;50.214;19.354;2023-10-13T07:27:01;97916.09;;;17.06;63.44
40285;BME280;25997;50.214;19.354;2023-10-13T07:30:09;97930.22;;;17.12;63.29
40285;BME280;25997;50.214;19.354;2023-10-13T07:33:15;97919.56;;;17.43;62.43
40285;BME280;25997;50.214;19.354;2023-10-13T07:36:20;97922.19;;;17.55;62.13
40285;BME280;25997;50.214;19.354;2023-10-13T07:39:30;97926.56;;;17.71;61.92
40285;BME280;25997;50.214;19.354;2023-10-13T07:42:35;97925.59;;;17.81;61.37
40285;BME280;25997;50.214;19.354;2023-10-13T07:45:42;97917.69;;;17.67;61.31
40285;BME280;25997;50.214;19.354;2023-10-13T07:48:45;97922.13;;;17.68;61.47
40285;BME280;25997;50.214;19.354;2023-10-13T07:51:47;97928.34;;;17.66;61.78
40285;BME280;25997;50.214;19.354;2023-10-13T07:54:52;97929.16;;;17.74;61.39
40285;BME280;25997;50.214;19.354;2023-10-13T07:58:00;97929.22;;;17.63;61.68
40285;BME280;25997;50.214;19.354;2023-10-13T08:01:10;97917.63;;;17.84;60.90
40285;BME280;25997;50.214;19.354;2023-10-13T08:04:18;97921.16;;;17.95;61.19
40285;BME280;25997;50.214;19.354;2023-10-13T08:07:29;97920.19;;;18.07;60.68
40285;BME280;25997;50.214;19.354;2023-10-13T08:10:35;97921.06;;;18.10;60.46
40285;BME280;25997;50.214;19.354;2023-10-13T08:13:38;97916.66;;;18.03;60.64
40285;BME280;25997;50.214;19.354;2023-10-13T08:16:48;97914.91;;;18.04;60.58
40285;BME280;25997;50.214;19.354;2023-10-13T08:19:55;97924.59;;;18.15;60.34
40285;BME280;25997;50.214;19.354;2023-10-13T08:22:57;97927.16;;;18.26;60.18
40285;BME280;25997;50.214;19.354;2023-10-13T08:26:14;97930.66;;;18.35;60.01
40285;BME280;25997;50.214;19.354;2023-10-13T08:29:30;97919.03;;;18.48;59.49
40285;BME280;25997;50.214;19.354;2023-10-13T08:32:51;97923.53;;;18.39;59.62
40285;BME280;25997;50.214;19.354;2023-10-13T08:35:57;97923.34;;;18.63;59.43
40285;BME280;25997;50.214;19.354;2023-10-13T08:39:14;97922.44;;;18.70;58.82
40285;BME280;25997;50.214;19.354;2023-10-13T08:42:44;97927.56;;;18.91;58.57
40285;BME280;25997;50.214;19.354;2023-10-13T08:46:09;97932.69;;;19.12;58.44
40285;BME280;25997;50.214;19.354;2023-10-13T08:49:27;97928.09;;;19.28;57.94
40285;BME280;25997;50.214;19.354;2023-10-13T08:52:30;97929.25;;;19.01;57.69
40285;BME280;25997;50.214;19.354;2023-10-13T08:55:50;97925.50;;;19.23;57.60
40285;BME280;25997;50.214;19.354;2023-10-13T08:59:04;97927.00;;;19.50;57.54
40285;BME280;25997;50.214;19.354;2023-10-13T09:02:14;97920.06;;;19.32;56.56
40285;BME280;25997;50.214;19.354;2023-10-13T09:05:24;97923.03;;;19.02;58.59
40285;BME280;25997;50.214;19.354;2023-10-13T09:08:42;97919.53;;;18.99;58.18
40285;BME280;25997;50.214;19.354;2023-10-13T09:12:10;97916.72;;;19.15;58.62
40285;BME280;25997;50.214;19.354;2023-10-13T09:15:14;97912.06;;;19.35;58.09
40285;BME280;25997;50.214;19.354;2023-10-13T09:18:25;97901.56;;;19.22;57.16
40285;BME280;25997;50.214;19.354;2023-10-13T09:21:49;97905.94;;;19.24;56.91
40285;BME280;25997;50.214;19.354;2023-10-13T09:24:56;97904.91;;;19.41;57.59
40285;BME280;25997;50.214;19.354;2023-10-13T09:27:59;97916.34;;;19.50;56.26
40285;BME280;25997;50.214;19.354;2023-10-13T09:31:03;97910.91;;;19.59;56.68
40285;BME280;25997;50.214;19.354;2023-10-13T09:34:08;97914.47;;;19.58;56.54
40285;BME280;25997;50.214;19.354;2023-10-13T09:37:12;97909.84;;;19.74;56.05
40285;BME280;25997;50.214;19.354;2023-10-13T09:40:22;97902.63;;;19.80;55.83
40285;BME280;25997;50.214;19.354;2023-10-13T09:43:30;97906.81;;;20.02;55.70
40285;BME280;25997;50.214;19.354;2023-10-13T09:46:35;97900.19;;;20.31;55.32
40285;BME280;25997;50.214;19.354;2023-10-13T09:49:43;97904.50;;;20.39;54.79
40285;BME280;25997;50.214;19.354;2023-10-13T09:52:52;97900.00;;;20.44;54.31
40285;BME280;25997;50.214;19.354;2023-10-13T09:56:02;97905.88;;;20.66;54.50
40285;BME280;25997;50.214;19.354;2023-10-13T09:59:17;97905.09;;;20.59;54.12
40285;BME280;25997;50.214;19.354;2023-10-13T10:02:21;97901.72;;;21.00;54.48
40285;BME280;25997;50.214;19.354;2023-10-13T10:05:26;97902.16;;;21.25;53.79
40285;BME280;25997;50.214;19.354;2023-10-13T10:08:36;97901.34;;;21.67;51.61
40285;BME280;25997;50.214;19.354;2023-10-13T10:15:26;97900.00;;;22.31;51.42
40285;BME280;25997;50.214;19.354;2023-10-13T10:18:34;97893.13;;;22.19;50.17
40285;BME280;25997;50.214;19.354;2023-10-13T10:21:37;97889.66;;;21.73;50.37
40285;BME280;25997;50.214;19.354;2023-10-13T10:24:43;97877.06;;;21.79;50.25
40285;BME280;25997;50.214;19.354;2023-10-13T10:27:54;97883.13;;;22.29;48.79
40285;BME280;25997;50.214;19.354;2023-10-13T10:31:05;97889.09;;;22.01;48.20
40285;BME280;25997;50.214;19.354;2023-10-13T10:34:12;97881.22;;;21.49;49.63
40285;BME280;25997;50.214;19.354;2023-10-13T10:37:15;97875.56;;;21.66;48.11
40285;BME280;25997;50.214;19.354;2023-10-13T10:40:20;97875.78;;;21.54;49.34
40285;BME280;25997;50.214;19.354;2023-10-13T10:43:43;97868.84;;;21.87;49.82
40285;BME280;25997;50.214;19.354;2023-10-13T10:46:46;97858.28;;;22.22;48.67
40285;BME280;25997;50.214;19.354;2023-10-13T10:50:00;97848.72;;;22.12;48.47
40285;BME280;25997;50.214;19.354;2023-10-13T10:53:08;97851.06;;;22.26;48.59
40285;BME280;25997;50.214;19.354;2023-10-13T10:56:13;97848.06;;;22.39;47.72
40285;BME280;25997;50.214;19.354;2023-10-13T10:59:24;97838.78;;;22.17;47.96
40285;BME280;25997;50.214;19.354;2023-10-13T11:02:30;97844.91;;;22.22;48.61
40285;BME280;25997;50.214;19.354;2023-10-13T11:05:43;97857.31;;;22.25;46.45
40285;BME280;25997;50.214;19.354;2023-10-13T11:08:45;97849.63;;;21.70;48.56
40285;BME280;25997;50.214;19.354;2023-10-13T11:11:54;97841.84;;;21.59;48.50
40285;BME280;25997;50.214;19.354;2023-10-13T11:15:02;97835.81;;;21.89;47.50
40285;BME280;25997;50.214;19.354;2023-10-13T11:18:10;97843.13;;;22.59;48.26
40285;BME280;25997;50.214;19.354;2023-10-13T11:21:21;97841.19;;;23.00;47.18
40285;BME280;25997;50.214;19.354;2023-10-13T11:24:25;97839.09;;;22.77;47.11
40285;BME280;25997;50.214;19.354;2023-10-13T11:27:30;97836.41;;;23.11;46.10
40285;BME280;25997;50.214;19.354;2023-10-13T11:30:58;97827.84;;;22.63;45.98
40285;BME280;25997;50.214;19.354;2023-10-13T11:34:00;97828.69;;;22.66;46.48
40285;BME280;25997;50.214;19.354;2023-10-13T11:37:06;97839.28;;;22.71;44.94
40285;BME280;25997;50.214;19.354;2023-10-13T11:40:23;97822.44;;;23.00;45.61
40285;BME280;25997;50.214;19.354;2023-10-13T11:43:42;97821.47;;;23.65;43.67
40285;BME280;25997;50.214;19.354;2023-10-13T11:47:02;97824.34;;;23.28;43.79
40285;BME280;25997;50.214;19.354;2023-10-13T11:50:33;97819.44;;;23.42;43.13
40285;BME280;25997;50.214;19.354;2023-10-13T11:53:37;97815.25;;;23.63;43.34
40285;BME280;25997;50.214;19.354;2023-10-13T11:56:39;97815.47;;;23.25;43.19
40285;BME280;25997;50.214;19.354;2023-10-13T11:59:43;97805.34;;;23.36;44.19
40285;BME280;25997;50.214;19.354;2023-10-13T12:02:56;97816.69;;;23.45;43.53
40285;BME280;25997;50.214;19.354;2023-10-13T12:06:16;97811.13;;;22.88;44.82
40285;BME280;25997;50.214;19.354;2023-10-13T12:09:34;97796.47;;;23.02;44.93
40285;BME280;25997;50.214;19.354;2023-10-13T12:12:53;97805.50;;;23.60;44.79
40285;BME280;25997;50.214;19.354;2023-10-13T12:15:57;97809.09;;;23.90;43.97
40285;BME280;25997;50.214;19.354;2023-10-13T12:18:59;97825.78;;;23.69;43.98
40285;BME280;25997;50.214;19.354;2023-10-13T12:22:02;97805.19;;;23.71;44.60
40285;BME280;25997;50.214;19.354;2023-10-13T12:25:07;97812.19;;;23.77;43.66
40285;BME280;25997;50.214;19.354;2023-10-13T12:28:26;97797.97;;;24.02;43.94
40285;BME280;25997;50.214;19.354;2023-10-13T12:31:30;97813.06;;;24.36;43.01
40285;BME280;25997;50.214;19.354;2023-10-13T12:34:34;97804.38;;;23.98;42.62
40285;BME280;25997;50.214;19.354;2023-10-13T12:37:58;97793.63;;;23.69;42.71
40285;BME280;25997;50.214;19.354;2023-10-13T12:41:06;97793.06;;;23.58;43.63
40285;BME280;25997;50.214;19.354;2023-10-13T12:44:26;97805.66;;;23.25;44.20
40285;BME280;25997;50.214;19.354;2023-10-13T12:47:47;97780.59;;;22.96;45.01
40285;BME280;25997;50.214;19.354;2023-10-13T12:51:07;97781.28;;;23.34;44.71
40285;BME280;25997;50.214;19.354;2023-10-13T12:54:20;97790.25;;;23.33;44.18
40285;BME280;25997;50.214;19.354;2023-10-13T12:57:28;97775.84;;;23.36;44.78
40285;BME280;25997;50.214;19.354;2023-10-13T13:00:33;97769.44;;;23.71;44.47
40285;BME280;25997;50.214;19.354;2023-10-13T13:03:37;97763.97;;;24.29;43.58
40285;BME280;25997;50.214;19.354;2023-10-13T13:06:46;97774.31;;;24.69;42.25
40285;BME280;25997;50.214;19.354;2023-10-13T13:09:49;97762.66;;;24.94;42.46
40285;BME280;25997;50.214;19.354;2023-10-13T13:12:51;97764.56;;;24.66;42.19
40285;BME280;25997;50.214;19.354;2023-10-13T13:15:54;97755.66;;;25.15;42.72
40285;BME280;25997;50.214;19.354;2023-10-13T13:18:58;97747.91;;;25.29;41.70
40285;BME280;25997;50.214;19.354;2023-10-13T13:22:04;97743.84;;;24.44;41.96
40285;BME280;25997;50.214;19.354;2023-10-13T13:25:12;97744.00;;;24.39;42.34
40285;BME280;25997;50.214;19.354;2023-10-13T13:28:18;97731.56;;;24.37;42.38
40285;BME280;25997;50.214;19.354;2023-10-13T13:31:24;97735.56;;;24.50;42.50
40285;BME280;25997;50.214;19.354;2023-10-13T13:34:31;97738.03;;;24.82;41.87
40285;BME280;25997;50.214;19.354;2023-10-13T13:37:34;97742.19;;;24.90;42.09
40285;BME280;25997;50.214;19.354;2023-10-13T13:40:38;97749.63;;;24.58;41.59
40285;BME280;25997;50.214;19.354;2023-10-13T13:43:41;97729.00;;;23.49;41.93
40285;BME280;25997;50.214;19.354;2023-10-13T13:46:51;97736.44;;;23.09;43.30
40285;BME280;25997;50.214;19.354;2023-10-13T13:49:55;97723.00;;;22.46;44.79
40285;BME280;25997;50.214;19.354;2023-10-13T13:52:58;97724.19;;;22.34;45.20
40285;BME280;25997;50.214;19.354;2023-10-13T13:56:02;97728.47;;;22.41;45.04
40285;BME280;25997;50.214;19.354;2023-10-13T13:59:04;97725.97;;;22.35;45.23
40285;BME280;25997;50.214;19.354;2023-10-13T14:02:10;97717.59;;;22.47;45.71
40285;BME280;25997;50.214;19.354;2023-10-13T14:05:22;97725.81;;;22.73;45.30
40285;BME280;25997;50.214;19.354;2023-10-13T14:08:25;97729.50;;;23.02;45.20
40285;BME280;25997;50.214;19.354;2023-10-13T14:11:30;97721.97;;;23.14;45.04
40285;BME280;25997;50.214;19.354;2023-10-13T14:14:50;97714.03;;;22.80;45.26
40285;BME280;25997;50.214;19.354;2023-10-13T14:17:56;97714.25;;;22.73;45.38
40285;BME280;25997;50.214;19.354;2023-10-13T14:21:00;97706.59;;;22.59;45.69
40285;BME280;25997;50.214;19.354;2023-10-13T14:24:05;97706.00;;;22.47;46.12
40285;BME280;25997;50.214;19.354;2023-10-13T14:27:15;97709.53;;;22.15;46.90
40285;BME280;25997;50.214;19.354;2023-10-13T14:30:20;97711.16;;;22.22;46.99
40285;BME280;25997;50.214;19.354;2023-10-13T14:33:24;97720.16;;;22.85;45.64
40285;BME280;25997;50.214;19.354;2023-10-13T14:36:28;97707.94;;;23.06;45.91
40285;BME280;25997;50.214;19.354;2023-10-13T14:39:33;97694.13;;;23.50;45.05
40285;BME280;25997;50.214;19.354;2023-10-13T14:42:38;97707.31;;;23.56;44.95
40285;BME280;25997;50.214;19.354;2023-10-13T14:45:41;97704.91;;;23.77;44.60
40285;BME280;25997;50.214;19.354;2023-10-13T14:48:44;97701.81;;;24.16;44.25
40285;BME280;25997;50.214;19.354;2023-10-13T14:51:51;97708.50;;;24.03;44.04
40285;BME280;25997;50.214;19.354;2023-10-13T14:54:56;97713.66;;;24.09;44.17
40285;BME280;25997;50.214;19.354;2023-10-13T14:57:58;97712.03;;;23.76;44.20
40285;BME280;25997;50.214;19.354;2023-10-13T15:01:00;97705.59;;;23.26;45.15
40285;BME280;25997;50.214;19.354;2023-10-13T15:04:04;97711.34;;;22.80;46.01
40285;BME280;25997;50.214;19.354;2023-10-13T15:07:08;97698.13;;;22.07;47.09
40285;BME280;25997;50.214;19.354;2023-10-13T15:10:11;97703.19;;;21.82;47.50
40285;BME280;25997;50.214;19.354;2023-10-13T15:13:15;97695.41;;;21.35;47.96
40285;BME280;25997;50.214;19.354;2023-10-13T15:16:21;97685.78;;;21.26;48.31
40285;BME280;25997;50.214;19.354;2023-10-13T15:19:23;97690.19;;;21.27;48.34
40285;BME280;25997;50.214;19.354;2023-10-13T15:22:27;97690.72;;;21.44;47.98
40285;BME280;25997;50.214;19.354;2023-10-13T15:25:30;97682.06;;;21.35;48.48
40285;BME280;25997;50.214;19.354;2023-10-13T15:28:50;97678.72;;;21.22;48.48
40285;BME280;25997;50.214;19.354;2023-10-13T15:31:54;97677.19;;;21.12;49.23
40285;BME280;25997;50.214;19.354;2023-10-13T15:35:06;97669.09;;;20.75;50.19
40285;BME280;25997;50.214;19.354;2023-10-13T15:38:14;97674.59;;;20.65;50.37
40285;BME280;25997;50.214;19.354;2023-10-13T15:41:21;97668.50;;;20.60;50.95
40285;BME280;25997;50.214;19.354;2023-10-13T15:44:24;97666.59;;;20.65;50.03
40285;BME280;25997;50.214;19.354;2023-10-13T15:47:29;97668.53;;;20.57;50.86
40285;BME280;25997;50.214;19.354;2023-10-13T15:50:36;97659.09;;;20.39;50.86
40285;BME280;25997;50.214;19.354;2023-10-13T15:53:42;97662.00;;;20.27;51.35
40285;BME280;25997;50.214;19.354;2023-10-13T15:56:49;97669.31;;;20.18;51.11
40285;BME280;25997;50.214;19.354;2023-10-13T15:59:53;97665.88;;;20.11;51.43
40285;BME280;25997;50.214;19.354;2023-10-13T16:02:57;97661.53;;;20.02;51.34
40285;BME280;25997;50.214;19.354;2023-10-13T16:06:02;97663.63;;;19.84;52.05
40285;BME280;25997;50.214;19.354;2023-10-13T16:09:12;97655.69;;;19.81;52.36
40285;BME280;25997;50.214;19.354;2023-10-13T16:12:16;97654.03;;;19.75;52.17
40285;BME280;25997;50.214;19.354;2023-10-13T16:15:18;97664.69;;;19.75;52.19
40285;BME280;25997;50.214;19.354;2023-10-13T16:18:22;97657.53;;;19.76;51.75
40285;BME280;25997;50.214;19.354;2023-10-13T16:21:24;97656.75;;;19.69;52.02
40285;BME280;25997;50.214;19.354;2023-10-13T16:24:28;97661.56;;;19.48;52.59
40285;BME280;25997;50.214;19.354;2023-10-13T16:27:34;97660.88;;;19.32;53.12
40285;BME280;25997;50.214;19.354;2023-10-13T16:30:40;97657.59;;;19.15;53.51